sensor_id;sensor_type;location;lat;lon;timestamp;pressure;altitude;pressure_sealevel;temperature;humidity
53889;BME280;41337;51.400;-2.342;2023-06-14T00:09:39;101300.53;;;19.02;54.84
53889;BME280;41337;51.400;-2.342;2023-06-14T00:14:49;101301.81;;;18.87;54.66
53889;BME280;41337;51.400;-2.342;2023-06-14T00:19:59;101303.25;;;18.76;54.12
53889;BME280;41337;51.400;-2.342;2023-06-14T00:25:09;101310.00;;;18.85;54.03
53889;BME280;41337;51.400;-2.342;2023-06-14T00:30:19;101308.38;;;18.91;53.66
53889;BME280;41337;51.400;-2.342;2023-06-14T00:35:29;101314.28;;;18.93;54.47
53889;BME280;41337;51.400;-2.342;2023-06-14T00:40:30;101315.59;;;18.70;55.73
53889;BME280;41337;51.400;-2.342;2023-06-14T00:45:40;101311.06;;;18.45;55.61
53889;BME280;41337;51.400;-2.342;2023-06-14T00:50:50;101322.56;;;18.32;55.99
53889;BME280;41337;51.400;-2.342;2023-06-14T00:56:02;101315.78;;;18.16;56.29
53889;BME280;41337;51.400;-2.342;2023-06-14T01:19:11;101329.50;;;18.00;55.48
53889;BME280;41337;51.400;-2.342;2023-06-14T01:24:17;101329.66;;;17.72;56.04
53889;BME280;41337;51.400;-2.342;2023-06-14T01:29:29;101328.78;;;17.65;55.52
53889;BME280;41337;51.400;-2.342;2023-06-14T01:34:42;101332.31;;;17.72;55.23
53889;BME280;41337;51.400;-2.342;2023-06-14T01:39:44;101327.09;;;17.51;56.00
53889;BME280;41337;51.400;-2.342;2023-06-14T01:44:55;101330.16;;;17.48;55.89
53889;BME280;41337;51.400;-2.342;2023-06-14T01:50:06;101326.81;;;17.33;56.10
53889;BME280;41337;51.400;-2.342;2023-06-14T01:55:16;101328.81;;;17.24;56.86
53889;BME280;41337;51.400;-2.342;2023-06-14T02:00:27;101330.81;;;17.16;57.05
53889;BME280;41337;51.400;-2.342;2023-06-14T02:05:37;101328.56;;;17.13;57.76
53889;BME280;41337;51.400;-2.342;2023-06-14T02:17:11;101333.16;;;16.98;57.42
53889;BME280;41337;51.400;-2.342;2023-06-14T02:22:21;101317.53;;;16.81;57.84
53889;BME280;41337;51.400;-2.342;2023-06-14T02:27:31;101320.50;;;16.65;57.20
53889;BME280;41337;51.400;-2.342;2023-06-14T02:32:41;101311.97;;;16.49;57.34
53889;BME280;41337;51.400;-2.342;2023-06-14T02:37:52;101308.31;;;16.50;55.63
53889;BME280;41337;51.400;-2.342;2023-06-14T02:42:53;101317.25;;;16.42;57.32
53889;BME280;41337;51.400;-2.342;2023-06-14T02:48:03;101316.34;;;16.35;58.03
53889;BME280;41337;51.400;-2.342;2023-06-14T02:53:13;101313.53;;;16.15;55.96
53889;BME280;41337;51.400;-2.342;2023-06-14T02:58:23;101308.81;;;16.11;57.46
53889;BME280;41337;51.400;-2.342;2023-06-14T03:03:34;101313.59;;;16.00;56.00
53889;BME280;41337;51.400;-2.342;2023-06-14T03:08:44;101309.06;;;15.94;57.05
53889;BME280;41337;51.400;-2.342;2023-06-14T03:13:54;101319.41;;;15.89;54.95
53889;BME280;41337;51.400;-2.342;2023-06-14T03:19:05;101321.28;;;15.74;54.30
53889;BME280;41337;51.400;-2.342;2023-06-14T03:24:15;101321.06;;;15.69;53.22
53889;BME280;41337;51.400;-2.342;2023-06-14T03:29:28;101330.13;;;15.45;53.96
53889;BME280;41337;51.400;-2.342;2023-06-14T03:34:38;101332.50;;;15.40;53.40
53889;BME280;41337;51.400;-2.342;2023-06-14T03:39:41;101337.34;;;15.37;54.78
53889;BME280;41337;51.400;-2.342;2023-06-14T03:44:55;101337.00;;;15.40;54.74
53889;BME280;41337;51.400;-2.342;2023-06-14T03:49:59;101345.06;;;15.32;53.13
53889;BME280;41337;51.400;-2.342;2023-06-14T03:55:01;101336.91;;;15.33;52.69
53889;BME280;41337;51.400;-2.342;2023-06-14T04:00:11;101343.78;;;14.98;54.41
53889;BME280;41337;51.400;-2.342;2023-06-14T04:05:22;101345.25;;;14.86;54.66
53889;BME280;41337;51.400;-2.342;2023-06-14T04:10:35;101350.19;;;14.89;54.89
53889;BME280;41337;51.400;-2.342;2023-06-14T04:15:45;101352.91;;;14.81;55.47
53889;BME280;41337;51.400;-2.342;2023-06-14T04:20:58;101359.63;;;14.54;55.65
53889;BME280;41337;51.400;-2.342;2023-06-14T04:26:08;101357.41;;;14.43;55.90
53889;BME280;41337;51.400;-2.342;2023-06-14T04:31:20;101358.59;;;14.41;56.82
53889;BME280;41337;51.400;-2.342;2023-06-14T04:36:25;101369.34;;;14.16;58.63
53889;BME280;41337;51.400;-2.342;2023-06-14T04:41:29;101368.06;;;14.12;59.05
53889;BME280;41337;51.400;-2.342;2023-06-14T04:46:40;101372.53;;;14.12;60.39
53889;BME280;41337;51.400;-2.342;2023-06-14T04:51:56;101372.63;;;14.18;60.44
53889;BME280;41337;51.400;-2.342;2023-06-14T04:57:11;101371.69;;;14.11;61.24
53889;BME280;41337;51.400;-2.342;2023-06-14T05:02:26;101366.50;;;13.95;61.38
53889;BME280;41337;51.400;-2.342;2023-06-14T05:07:36;101362.00;;;14.04;61.40
53889;BME280;41337;51.400;-2.342;2023-06-14T05:12:46;101381.22;;;13.98;61.65
53889;BME280;41337;51.400;-2.342;2023-06-14T05:17:51;101386.66;;;13.96;62.37
53889;BME280;41337;51.400;-2.342;2023-06-14T05:23:04;101382.34;;;14.03;62.61
53889;BME280;41337;51.400;-2.342;2023-06-14T05:28:14;101372.06;;;14.08;62.82
53889;BME280;41337;51.400;-2.342;2023-06-14T05:33:26;101378.28;;;14.15;62.86
53889;BME280;41337;51.400;-2.342;2023-06-14T05:38:36;101374.03;;;14.06;63.36
53889;BME280;41337;51.400;-2.342;2023-06-14T05:43:37;101372.38;;;14.05;64.58
53889;BME280;41337;51.400;-2.342;2023-06-14T05:48:48;101379.56;;;14.19;63.37
53889;BME280;41337;51.400;-2.342;2023-06-14T06:00:20;101381.47;;;14.34;63.63
53889;BME280;41337;51.400;-2.342;2023-06-14T06:18:09;101404.44;;;14.41;66.00
53889;BME280;41337;51.400;-2.342;2023-06-14T06:23:19;101397.13;;;14.43;66.28
53889;BME280;41337;51.400;-2.342;2023-06-14T06:28:29;101403.94;;;14.60;65.52
53889;BME280;41337;51.400;-2.342;2023-06-14T06:33:39;101396.03;;;14.75;66.41
53889;BME280;41337;51.400;-2.342;2023-06-14T06:57:48;101398.25;;;15.16;65.85
53889;BME280;41337;51.400;-2.342;2023-06-14T07:02:50;101405.34;;;15.23;65.64
53889;BME280;41337;51.400;-2.342;2023-06-14T07:07:51;101398.34;;;15.37;64.38
53889;BME280;41337;51.400;-2.342;2023-06-14T07:12:52;101395.38;;;15.54;64.10
53889;BME280;41337;51.400;-2.342;2023-06-14T07:18:02;101389.84;;;15.71;64.40
53889;BME280;41337;51.400;-2.342;2023-06-14T07:23:11;101401.31;;;15.92;62.33
53889;BME280;41337;51.400;-2.342;2023-06-14T07:28:21;101403.75;;;16.09;63.91
53889;BME280;41337;51.400;-2.342;2023-06-14T07:33:25;101404.00;;;16.14;62.89
53889;BME280;41337;51.400;-2.342;2023-06-14T07:38:25;101403.31;;;16.26;61.59
53889;BME280;41337;51.400;-2.342;2023-06-14T07:49:52;101400.09;;;16.52;60.17
53889;BME280;41337;51.400;-2.342;2023-06-14T07:55:01;101411.63;;;16.59;61.55
53889;BME280;41337;51.400;-2.342;2023-06-14T08:31:56;101417.97;;;17.96;54.27
53889;BME280;41337;51.400;-2.342;2023-06-14T08:37:06;101407.78;;;18.06;52.97
53889;BME280;41337;51.400;-2.342;2023-06-14T08:42:09;101413.31;;;18.11;53.48
53889;BME280;41337;51.400;-2.342;2023-06-14T08:47:19;101408.44;;;18.47;51.41
53889;BME280;41337;51.400;-2.342;2023-06-14T08:52:34;101412.41;;;18.58;51.44
53889;BME280;41337;51.400;-2.342;2023-06-14T08:57:49;101417.31;;;18.67;51.11
53889;BME280;41337;51.400;-2.342;2023-06-14T09:03:00;101413.22;;;18.91;50.55
53889;BME280;41337;51.400;-2.342;2023-06-14T09:08:10;101414.03;;;19.05;50.26
53889;BME280;41337;51.400;-2.342;2023-06-14T09:13:20;101406.75;;;19.38;47.80
53889;BME280;41337;51.400;-2.342;2023-06-14T09:18:42;101415.78;;;19.50;48.34
53889;BME280;41337;51.400;-2.342;2023-06-14T09:23:46;101415.09;;;19.68;45.51
53889;BME280;41337;51.400;-2.342;2023-06-14T09:28:57;101413.75;;;19.90;45.11
53889;BME280;41337;51.400;-2.342;2023-06-14T09:33:58;101416.63;;;20.27;43.36
53889;BME280;41337;51.400;-2.342;2023-06-14T09:39:08;101418.03;;;20.36;42.66
53889;BME280;41337;51.400;-2.342;2023-06-14T09:44:19;101405.50;;;20.61;42.27
53889;BME280;41337;51.400;-2.342;2023-06-14T09:49:30;101408.28;;;20.73;41.64
53889;BME280;41337;51.400;-2.342;2023-06-14T09:54:43;101425.13;;;20.98;40.45
53889;BME280;41337;51.400;-2.342;2023-06-14T09:59:57;101416.56;;;21.14;39.73
53889;BME280;41337;51.400;-2.342;2023-06-14T10:11:39;101421.78;;;21.64;37.63
53889;BME280;41337;51.400;-2.342;2023-06-14T10:16:56;101412.09;;;21.81;37.07
53889;BME280;41337;51.400;-2.342;2023-06-14T10:28:31;101422.28;;;22.20;36.73
53889;BME280;41337;51.400;-2.342;2023-06-14T10:33:34;101411.78;;;22.60;32.78
53889;BME280;41337;51.400;-2.342;2023-06-14T10:38:36;101408.16;;;22.66;32.05
53889;BME280;41337;51.400;-2.342;2023-06-14T10:43:47;101407.97;;;22.91;33.23
53889;BME280;41337;51.400;-2.342;2023-06-14T10:48:57;101400.94;;;23.13;31.88
53889;BME280;41337;51.400;-2.342;2023-06-14T10:54:12;101395.91;;;23.29;30.08
53889;BME280;41337;51.400;-2.342;2023-06-14T11:05:51;101395.50;;;23.60;30.36
53889;BME280;41337;51.400;-2.342;2023-06-14T11:11:06;101394.81;;;23.93;30.84
53889;BME280;41337;51.400;-2.342;2023-06-14T11:22:54;101392.31;;;24.48;29.44
53889;BME280;41337;51.400;-2.342;2023-06-14T11:28:04;101387.88;;;24.75;28.39
53889;BME280;41337;51.400;-2.342;2023-06-14T11:33:09;101380.13;;;24.95;29.33
53889;BME280;41337;51.400;-2.342;2023-06-14T11:38:20;101369.81;;;25.31;27.15
53889;BME280;41337;51.400;-2.342;2023-06-14T11:43:30;101359.94;;;25.36;28.50
53889;BME280;41337;51.400;-2.342;2023-06-14T11:54:58;101363.88;;;26.63;26.33
53889;BME280;41337;51.400;-2.342;2023-06-14T12:00:09;101358.09;;;27.43;27.41
53889;BME280;41337;51.400;-2.342;2023-06-14T12:05:22;101356.38;;;28.09;26.29
53889;BME280;41337;51.400;-2.342;2023-06-14T12:10:39;101358.22;;;28.95;24.48
53889;BME280;41337;51.400;-2.342;2023-06-14T12:15:55;101360.91;;;29.64;24.26
53889;BME280;41337;51.400;-2.342;2023-06-14T12:27:21;101360.56;;;30.77;24.23
53889;BME280;41337;51.400;-2.342;2023-06-14T12:32:24;101368.72;;;31.06;24.70
53889;BME280;41337;51.400;-2.342;2023-06-14T12:37:25;101360.03;;;31.04;24.37
53889;BME280;41337;51.400;-2.342;2023-06-14T12:42:26;101357.47;;;31.13;25.17
53889;BME280;41337;51.400;-2.342;2023-06-14T12:47:36;101355.03;;;31.35;25.28
53889;BME280;41337;51.400;-2.342;2023-06-14T12:52:46;101355.22;;;31.62;25.49
53889;BME280;41337;51.400;-2.342;2023-06-14T12:57:56;101359.31;;;32.16;25.42
53889;BME280;41337;51.400;-2.342;2023-06-14T13:03:05;101358.81;;;32.60;24.92
53889;BME280;41337;51.400;-2.342;2023-06-14T13:14:32;101347.25;;;33.09;25.01
53889;BME280;41337;51.400;-2.342;2023-06-14T13:19:42;101340.06;;;32.99;24.93
53889;BME280;41337;51.400;-2.342;2023-06-14T13:24:51;101341.78;;;32.95;26.07
53889;BME280;41337;51.400;-2.342;2023-06-14T13:30:01;101342.28;;;33.25;25.68
53889;BME280;41337;51.400;-2.342;2023-06-14T13:35:02;101336.25;;;33.64;25.46
53889;BME280;41337;51.400;-2.342;2023-06-14T13:40:05;101340.06;;;33.76;25.22
53889;BME280;41337;51.400;-2.342;2023-06-14T13:45:07;101336.25;;;34.08;24.72
53889;BME280;41337;51.400;-2.342;2023-06-14T13:50:17;101330.88;;;34.17;24.90
53889;BME280;41337;51.400;-2.342;2023-06-14T13:55:27;101329.81;;;34.57;24.01
53889;BME280;41337;51.400;-2.342;2023-06-14T14:00:37;101324.63;;;34.47;24.76
53889;BME280;41337;51.400;-2.342;2023-06-14T14:05:49;101314.78;;;34.68;24.44
53889;BME280;41337;51.400;-2.342;2023-06-14T14:10:50;101323.69;;;34.82;23.97
53889;BME280;41337;51.400;-2.342;2023-06-14T14:15:51;101324.97;;;34.85;23.81
53889;BME280;41337;51.400;-2.342;2023-06-14T14:20:53;101320.25;;;35.25;24.32
53889;BME280;41337;51.400;-2.342;2023-06-14T14:25:53;101327.06;;;35.70;23.53
53889;BME280;41337;51.400;-2.342;2023-06-14T14:30:57;101313.34;;;35.79;23.48
53889;BME280;41337;51.400;-2.342;2023-06-14T14:35:58;101317.88;;;35.84;23.84
53889;BME280;41337;51.400;-2.342;2023-06-14T14:41:04;101311.69;;;36.04;23.60
53889;BME280;41337;51.400;-2.342;2023-06-14T14:46:05;101314.19;;;35.71;24.39
53889;BME280;41337;51.400;-2.342;2023-06-14T14:51:06;101320.44;;;35.89;23.91
53889;BME280;41337;51.400;-2.342;2023-06-14T14:56:06;101322.50;;;35.32;24.37
53889;BME280;41337;51.400;-2.342;2023-06-14T15:01:07;101314.13;;;35.19;23.98
53889;BME280;41337;51.400;-2.342;2023-06-14T15:06:08;101302.00;;;35.12;24.56
53889;BME280;41337;51.400;-2.342;2023-06-14T15:11:09;101302.88;;;35.29;24.87
53889;BME280;41337;51.400;-2.342;2023-06-14T15:16:10;101302.16;;;35.07;25.18
53889;BME280;41337;51.400;-2.342;2023-06-14T15:21:11;101293.06;;;35.54;24.99
53889;BME280;41337;51.400;-2.342;2023-06-14T15:26:12;101293.00;;;36.06;24.33
53889;BME280;41337;51.400;-2.342;2023-06-14T15:31:14;101301.84;;;36.67;24.07
53889;BME280;41337;51.400;-2.342;2023-06-14T15:36:15;101295.59;;;36.57;23.28
53889;BME280;41337;51.400;-2.342;2023-06-14T15:41:16;101296.88;;;36.05;24.15
53889;BME280;41337;51.400;-2.342;2023-06-14T15:46:17;101304.97;;;35.93;24.53
53889;BME280;41337;51.400;-2.342;2023-06-14T15:51:21;101295.63;;;35.94;23.97
53889;BME280;41337;51.400;-2.342;2023-06-14T15:56:22;101288.84;;;36.46;24.39
53889;BME280;41337;51.400;-2.342;2023-06-14T16:01:23;101302.38;;;36.60;24.25
53889;BME280;41337;51.400;-2.342;2023-06-14T16:06:24;101292.63;;;37.00;23.11
53889;BME280;41337;51.400;-2.342;2023-06-14T16:11:25;101284.72;;;36.99;22.64
53889;BME280;41337;51.400;-2.342;2023-06-14T16:16:26;101286.38;;;36.71;23.57
53889;BME280;41337;51.400;-2.342;2023-06-14T16:21:27;101279.75;;;36.63;23.50
53889;BME280;41337;51.400;-2.342;2023-06-14T16:26:28;101280.16;;;36.82;23.02
53889;BME280;41337;51.400;-2.342;2023-06-14T16:31:28;101276.09;;;35.95;24.49
53889;BME280;41337;51.400;-2.342;2023-06-14T16:36:29;101274.53;;;36.41;23.99
53889;BME280;41337;51.400;-2.342;2023-06-14T16:41:30;101276.44;;;36.49;23.56
53889;BME280;41337;51.400;-2.342;2023-06-14T16:46:32;101276.88;;;36.89;22.60
53889;BME280;41337;51.400;-2.342;2023-06-14T16:51:33;101279.63;;;36.04;24.66
53889;BME280;41337;51.400;-2.342;2023-06-14T16:56:34;101282.72;;;36.49;23.74
53889;BME280;41337;51.400;-2.342;2023-06-14T17:01:35;101290.97;;;36.49;23.45
53889;BME280;41337;51.400;-2.342;2023-06-14T17:06:36;101286.06;;;36.08;23.00
53889;BME280;41337;51.400;-2.342;2023-06-14T17:11:37;101286.56;;;36.19;22.93
53889;BME280;41337;51.400;-2.342;2023-06-14T17:16:38;101276.28;;;36.83;23.10
53889;BME280;41337;51.400;-2.342;2023-06-14T17:21:39;101288.94;;;36.67;22.65
53889;BME280;41337;51.400;-2.342;2023-06-14T17:26:47;101287.50;;;36.23;23.46
53889;BME280;41337;51.400;-2.342;2023-06-14T17:31:49;101290.72;;;36.25;23.75
53889;BME280;41337;51.400;-2.342;2023-06-14T17:36:50;101288.88;;;36.38;22.98
53889;BME280;41337;51.400;-2.342;2023-06-14T17:41:51;101290.25;;;36.23;23.36
53889;BME280;41337;51.400;-2.342;2023-06-14T17:46:52;101289.38;;;35.76;23.91
53889;BME280;41337;51.400;-2.342;2023-06-14T17:51:53;101283.56;;;35.60;24.24
53889;BME280;41337;51.400;-2.342;2023-06-14T17:56:53;101294.28;;;36.17;23.35
53889;BME280;41337;51.400;-2.342;2023-06-14T18:01:54;101295.41;;;35.04;24.93
53889;BME280;41337;51.400;-2.342;2023-06-14T18:06:55;101308.09;;;34.52;25.86
53889;BME280;41337;51.400;-2.342;2023-06-14T18:11:56;101300.69;;;34.22;26.24
53889;BME280;41337;51.400;-2.342;2023-06-14T18:16:57;101299.00;;;34.34;25.79
53889;BME280;41337;51.400;-2.342;2023-06-14T18:21:59;101304.50;;;34.43;24.81
53889;BME280;41337;51.400;-2.342;2023-06-14T18:27:00;101298.84;;;33.86;25.95
53889;BME280;41337;51.400;-2.342;2023-06-14T18:32:02;101294.19;;;33.29;27.39
53889;BME280;41337;51.400;-2.342;2023-06-14T18:37:03;101304.22;;;32.65;27.70
53889;BME280;41337;51.400;-2.342;2023-06-14T18:42:04;101305.53;;;31.89;28.99
53889;BME280;41337;51.400;-2.342;2023-06-14T18:47:06;101312.69;;;31.66;29.22
53889;BME280;41337;51.400;-2.342;2023-06-14T18:52:08;101317.66;;;31.22;30.06
53889;BME280;41337;51.400;-2.342;2023-06-14T18:57:09;101316.53;;;30.80;30.59
53889;BME280;41337;51.400;-2.342;2023-06-14T19:02:10;101322.47;;;30.59;31.06
53889;BME280;41337;51.400;-2.342;2023-06-14T19:07:11;101319.00;;;30.19;31.58
53889;BME280;41337;51.400;-2.342;2023-06-14T19:12:12;101326.31;;;29.90;31.90
53889;BME280;41337;51.400;-2.342;2023-06-14T19:17:12;101324.84;;;29.64;33.09
53889;BME280;41337;51.400;-2.342;2023-06-14T19:22:13;101338.16;;;29.60;32.10
53889;BME280;41337;51.400;-2.342;2023-06-14T19:27:15;101333.44;;;29.22;34.22
53889;BME280;41337;51.400;-2.342;2023-06-14T19:32:16;101336.75;;;29.09;34.10
53889;BME280;41337;51.400;-2.342;2023-06-14T19:37:16;101340.06;;;28.95;34.10
53889;BME280;41337;51.400;-2.342;2023-06-14T19:42:18;101350.69;;;28.61;35.11
53889;BME280;41337;51.400;-2.342;2023-06-14T19:47:19;101341.75;;;28.56;35.25
53889;BME280;41337;51.400;-2.342;2023-06-14T19:52:20;101343.91;;;28.74;35.31
53889;BME280;41337;51.400;-2.342;2023-06-14T19:57:23;101356.91;;;28.77;35.76
53889;BME280;41337;51.400;-2.342;2023-06-14T20:02:25;101353.38;;;28.67;35.44
53889;BME280;41337;51.400;-2.342;2023-06-14T20:07:26;101365.88;;;28.37;35.66
53889;BME280;41337;51.400;-2.342;2023-06-14T20:12:27;101376.66;;;28.07;36.11
53889;BME280;41337;51.400;-2.342;2023-06-14T20:17:28;101379.00;;;27.63;36.46
53889;BME280;41337;51.400;-2.342;2023-06-14T20:22:29;101376.94;;;27.23;37.62
53889;BME280;41337;51.400;-2.342;2023-06-14T20:27:30;101390.13;;;27.09;38.28
53889;BME280;41337;51.400;-2.342;2023-06-14T20:32:30;101393.81;;;26.93;39.38
53889;BME280;41337;51.400;-2.342;2023-06-14T20:37:31;101407.31;;;26.61;40.18
53889;BME280;41337;51.400;-2.342;2023-06-14T20:42:32;101404.50;;;26.19;40.92
53889;BME280;41337;51.400;-2.342;2023-06-14T20:47:34;101409.66;;;25.67;42.42
53889;BME280;41337;51.400;-2.342;2023-06-14T20:52:39;101405.19;;;25.56;43.06
53889;BME280;41337;51.400;-2.342;2023-06-14T20:57:40;101407.53;;;25.31;43.43
53889;BME280;41337;51.400;-2.342;2023-06-14T21:02:41;101415.78;;;25.02;44.00
53889;BME280;41337;51.400;-2.342;2023-06-14T21:07:42;101419.03;;;24.71;45.31
53889;BME280;41337;51.400;-2.342;2023-06-14T21:12:43;101421.91;;;24.48;45.92
53889;BME280;41337;51.400;-2.342;2023-06-14T21:17:44;101430.09;;;24.25;46.58
53889;BME280;41337;51.400;-2.342;2023-06-14T21:22:45;101437.53;;;24.18;46.33
53889;BME280;41337;51.400;-2.342;2023-06-14T21:27:47;101441.25;;;23.88;46.99
53889;BME280;41337;51.400;-2.342;2023-06-14T21:32:48;101435.16;;;23.81;47.84
53889;BME280;41337;51.400;-2.342;2023-06-14T21:37:48;101432.41;;;23.76;48.18
53889;BME280;41337;51.400;-2.342;2023-06-14T21:42:49;101443.97;;;23.65;48.15
53889;BME280;41337;51.400;-2.342;2023-06-14T21:47:50;101445.03;;;23.64;48.21
53889;BME280;41337;51.400;-2.342;2023-06-14T21:52:51;101447.97;;;23.39;48.78
53889;BME280;41337;51.400;-2.342;2023-06-14T21:57:51;101451.69;;;23.38;48.72
53889;BME280;41337;51.400;-2.342;2023-06-14T22:02:52;101454.88;;;23.23;49.39
53889;BME280;41337;51.400;-2.342;2023-06-14T22:07:53;101452.09;;;23.07;49.71
53889;BME280;41337;51.400;-2.342;2023-06-14T22:12:54;101454.66;;;22.79;50.19
53889;BME280;41337;51.400;-2.342;2023-06-14T22:17:57;101453.75;;;22.66;50.28
53889;BME280;41337;51.400;-2.342;2023-06-14T22:22:58;101459.72;;;22.57;50.59
53889;BME280;41337;51.400;-2.342;2023-06-14T22:28:00;101462.13;;;22.47;51.19
53889;BME280;41337;51.400;-2.342;2023-06-14T22:33:01;101463.97;;;22.35;51.66
53889;BME280;41337;51.400;-2.342;2023-06-14T22:38:03;101476.56;;;22.34;51.37
53889;BME280;41337;51.400;-2.342;2023-06-14T22:43:04;101471.69;;;22.43;50.71
53889;BME280;41337;51.400;-2.342;2023-06-14T22:48:05;101473.84;;;22.22;50.64
53889;BME280;41337;51.400;-2.342;2023-06-14T22:53:06;101471.69;;;22.13;51.56
53889;BME280;41337;51.400;-2.342;2023-06-14T22:58:08;101479.06;;;21.99;51.88
53889;BME280;41337;51.400;-2.342;2023-06-14T23:03:09;101481.19;;;21.97;52.12
53889;BME280;41337;51.400;-2.342;2023-06-14T23:08:10;101482.38;;;22.01;51.20
53889;BME280;41337;51.400;-2.342;2023-06-14T23:13:11;101482.78;;;21.98;51.61
53889;BME280;41337;51.400;-2.342;2023-06-14T23:18:12;101493.44;;;22.05;51.50
53889;BME280;41337;51.400;-2.342;2023-06-14T23:23:14;101493.25;;;22.06;51.07
53889;BME280;41337;51.400;-2.342;2023-06-14T23:28:14;101495.88;;;21.52;53.12
53889;BME280;41337;51.400;-2.342;2023-06-14T23:33:17;101493.75;;;21.42;53.53
53889;BME280;41337;51.400;-2.342;2023-06-14T23:38:18;101493.97;;;21.16;54.63
53889;BME280;41337;51.400;-2.342;2023-06-14T23:43:20;101491.94;;;21.11;54.63
53889;BME280;41337;51.400;-2.342;2023-06-14T23:48:22;101494.44;;;21.13;54.62
53889;BME280;41337;51.400;-2.342;2023-06-14T23:53:26;101491.59;;;21.01;55.65
53889;BME280;41337;51.400;-2.342;2023-06-14T23:58:28;101490.56;;;21.02;55.56
